sensor_id;sensor_type;location;lat;lon;timestamp;P1;durP1;ratioP1;P2;durP2;ratioP2
47960;SDS011;33721;48.852;9.936;2023-04-25T00:01:38;9.82;;;3.88;;
47960;SDS011;33721;48.852;9.936;2023-04-25T00:04:04;7.15;;;3.58;;
47960;SDS011;33721;48.852;9.936;2023-04-25T00:06:34;8.43;;;3.67;;
47960;SDS011;33721;48.852;9.936;2023-04-25T00:09:01;7.93;;;3.83;;
47960;SDS011;33721;48.852;9.936;2023-04-25T00:11:32;7.78;;;3.85;;
47960;SDS011;33721;48.852;9.936;2023-04-25T00:13:58;8.23;;;4.00;;
47960;SDS011;33721;48.852;9.936;2023-04-25T00:16:26;10.65;;;4.47;;
47960;SDS011;33721;48.852;9.936;2023-04-25T00:18:53;8.07;;;4.00;;
47960;SDS011;33721;48.852;9.936;2023-04-25T00:21:19;9.27;;;4.53;;
47960;SDS011;33721;48.852;9.936;2023-04-25T00:23:46;8.73;;;4.10;;
47960;SDS011;33721;48.852;9.936;2023-04-25T00:26:12;9.43;;;4.00;;
47960;SDS011;33721;48.852;9.936;2023-04-25T00:28:38;7.78;;;3.67;;
47960;SDS011;33721;48.852;9.936;2023-04-25T00:31:05;8.35;;;4.00;;
47960;SDS011;33721;48.852;9.936;2023-04-25T00:33:30;9.55;;;3.90;;
47960;SDS011;33721;48.852;9.936;2023-04-25T00:35:56;7.85;;;4.30;;
47960;SDS011;33721;48.852;9.936;2023-04-25T00:38:22;8.95;;;3.80;;
47960;SDS011;33721;48.852;9.936;2023-04-25T00:40:47;7.18;;;4.20;;
47960;SDS011;33721;48.852;9.936;2023-04-25T00:43:13;7.70;;;3.90;;
47960;SDS011;33721;48.852;9.936;2023-04-25T00:45:39;7.95;;;4.30;;
47960;SDS011;33721;48.852;9.936;2023-04-25T00:48:05;7.13;;;4.03;;
47960;SDS011;33721;48.852;9.936;2023-04-25T00:50:32;8.80;;;4.25;;
47960;SDS011;33721;48.852;9.936;2023-04-25T00:52:58;10.77;;;3.42;;
47960;SDS011;33721;48.852;9.936;2023-04-25T00:55:24;10.10;;;3.70;;
47960;SDS011;33721;48.852;9.936;2023-04-25T00:57:50;10.07;;;3.90;;
47960;SDS011;33721;48.852;9.936;2023-04-25T01:00:16;9.25;;;4.03;;
47960;SDS011;33721;48.852;9.936;2023-04-25T01:02:43;8.02;;;3.88;;
47960;SDS011;33721;48.852;9.936;2023-04-25T01:05:10;9.25;;;4.25;;
47960;SDS011;33721;48.852;9.936;2023-04-25T01:07:37;7.70;;;4.10;;
47960;SDS011;33721;48.852;9.936;2023-04-25T01:10:03;7.40;;;3.55;;
47960;SDS011;33721;48.852;9.936;2023-04-25T01:12:29;8.10;;;3.92;;
47960;SDS011;33721;48.852;9.936;2023-04-25T01:14:55;9.13;;;3.70;;
47960;SDS011;33721;48.852;9.936;2023-04-25T01:17:21;7.43;;;3.35;;
47960;SDS011;33721;48.852;9.936;2023-04-25T01:19:47;5.65;;;3.30;;
47960;SDS011;33721;48.852;9.936;2023-04-25T01:22:14;8.70;;;4.07;;
47960;SDS011;33721;48.852;9.936;2023-04-25T01:24:40;6.63;;;3.65;;
47960;SDS011;33721;48.852;9.936;2023-04-25T01:27:06;7.53;;;4.03;;
47960;SDS011;33721;48.852;9.936;2023-04-25T01:29:32;8.55;;;3.92;;
47960;SDS011;33721;48.852;9.936;2023-04-25T01:31:59;8.23;;;3.20;;
47960;SDS011;33721;48.852;9.936;2023-04-25T01:34:26;9.15;;;4.07;;
47960;SDS011;33721;48.852;9.936;2023-04-25T01:36:51;8.60;;;3.63;;
47960;SDS011;33721;48.852;9.936;2023-04-25T01:39:18;9.25;;;4.20;;
47960;SDS011;33721;48.852;9.936;2023-04-25T01:41:47;8.05;;;3.50;;
47960;SDS011;33721;48.852;9.936;2023-04-25T01:44:13;7.47;;;3.55;;
47960;SDS011;33721;48.852;9.936;2023-04-25T01:46:40;8.90;;;4.13;;
47960;SDS011;33721;48.852;9.936;2023-04-25T01:49:05;8.98;;;4.32;;
47960;SDS011;33721;48.852;9.936;2023-04-25T01:51:31;8.40;;;3.83;;
47960;SDS011;33721;48.852;9.936;2023-04-25T01:53:57;6.40;;;3.40;;
47960;SDS011;33721;48.852;9.936;2023-04-25T01:56:23;10.10;;;3.92;;
47960;SDS011;33721;48.852;9.936;2023-04-25T01:58:49;6.45;;;3.53;;
47960;SDS011;33721;48.852;9.936;2023-04-25T02:01:16;6.07;;;3.55;;
47960;SDS011;33721;48.852;9.936;2023-04-25T02:03:42;8.02;;;3.75;;
47960;SDS011;33721;48.852;9.936;2023-04-25T02:06:08;7.82;;;3.67;;
47960;SDS011;33721;48.852;9.936;2023-04-25T02:08:34;7.53;;;3.55;;
47960;SDS011;33721;48.852;9.936;2023-04-25T02:11:00;9.75;;;4.10;;
47960;SDS011;33721;48.852;9.936;2023-04-25T02:13:25;6.13;;;3.47;;
47960;SDS011;33721;48.852;9.936;2023-04-25T02:15:51;7.93;;;4.03;;
47960;SDS011;33721;48.852;9.936;2023-04-25T02:18:18;10.35;;;3.78;;
47960;SDS011;33721;48.852;9.936;2023-04-25T02:20:44;8.13;;;4.15;;
47960;SDS011;33721;48.852;9.936;2023-04-25T02:23:10;7.45;;;3.67;;
47960;SDS011;33721;48.852;9.936;2023-04-25T02:25:36;9.18;;;3.95;;
47960;SDS011;33721;48.852;9.936;2023-04-25T02:28:02;7.28;;;3.90;;
47960;SDS011;33721;48.852;9.936;2023-04-25T02:30:27;7.13;;;4.05;;
47960;SDS011;33721;48.852;9.936;2023-04-25T02:32:53;7.80;;;3.67;;
47960;SDS011;33721;48.852;9.936;2023-04-25T02:35:19;7.60;;;3.97;;
47960;SDS011;33721;48.852;9.936;2023-04-25T02:37:44;9.07;;;3.63;;
47960;SDS011;33721;48.852;9.936;2023-04-25T02:40:10;8.23;;;3.63;;
47960;SDS011;33721;48.852;9.936;2023-04-25T02:42:36;7.30;;;3.85;;
47960;SDS011;33721;48.852;9.936;2023-04-25T02:45:02;7.90;;;3.90;;
47960;SDS011;33721;48.852;9.936;2023-04-25T02:47:28;8.27;;;3.50;;
47960;SDS011;33721;48.852;9.936;2023-04-25T02:49:54;7.22;;;3.80;;
47960;SDS011;33721;48.852;9.936;2023-04-25T02:52:19;9.18;;;3.97;;
47960;SDS011;33721;48.852;9.936;2023-04-25T02:54:46;8.23;;;4.38;;
47960;SDS011;33721;48.852;9.936;2023-04-25T02:57:11;8.82;;;4.18;;
47960;SDS011;33721;48.852;9.936;2023-04-25T02:59:37;10.10;;;4.72;;
47960;SDS011;33721;48.852;9.936;2023-04-25T03:02:03;8.68;;;4.78;;
47960;SDS011;33721;48.852;9.936;2023-04-25T03:04:29;7.80;;;3.85;;
47960;SDS011;33721;48.852;9.936;2023-04-25T03:06:54;9.43;;;4.07;;
47960;SDS011;33721;48.852;9.936;2023-04-25T03:09:20;7.85;;;4.22;;
47960;SDS011;33721;48.852;9.936;2023-04-25T03:11:46;7.45;;;3.85;;
47960;SDS011;33721;48.852;9.936;2023-04-25T03:14:12;10.57;;;4.78;;
47960;SDS011;33721;48.852;9.936;2023-04-25T03:16:38;14.00;;;5.57;;
47960;SDS011;33721;48.852;9.936;2023-04-25T03:19:04;9.18;;;5.20;;
47960;SDS011;33721;48.852;9.936;2023-04-25T03:21:30;12.60;;;5.55;;
47960;SDS011;33721;48.852;9.936;2023-04-25T03:23:57;11.10;;;5.15;;
47960;SDS011;33721;48.852;9.936;2023-04-25T03:26:23;11.10;;;5.20;;
47960;SDS011;33721;48.852;9.936;2023-04-25T03:28:49;10.38;;;5.32;;
47960;SDS011;33721;48.852;9.936;2023-04-25T03:31:15;12.85;;;5.45;;
47960;SDS011;33721;48.852;9.936;2023-04-25T03:33:40;13.70;;;5.45;;
47960;SDS011;33721;48.852;9.936;2023-04-25T03:36:06;11.90;;;5.38;;
47960;SDS011;33721;48.852;9.936;2023-04-25T03:38:32;11.95;;;5.60;;
47960;SDS011;33721;48.852;9.936;2023-04-25T03:40:58;11.50;;;5.53;;
47960;SDS011;33721;48.852;9.936;2023-04-25T03:43:23;10.38;;;5.43;;
47960;SDS011;33721;48.852;9.936;2023-04-25T03:45:49;12.75;;;5.60;;
47960;SDS011;33721;48.852;9.936;2023-04-25T03:48:15;11.45;;;5.75;;
47960;SDS011;33721;48.852;9.936;2023-04-25T03:50:41;10.68;;;5.28;;
47960;SDS011;33721;48.852;9.936;2023-04-25T03:53:06;11.18;;;5.30;;
47960;SDS011;33721;48.852;9.936;2023-04-25T03:55:32;14.82;;;5.95;;
47960;SDS011;33721;48.852;9.936;2023-04-25T03:57:58;15.30;;;5.82;;
47960;SDS011;33721;48.852;9.936;2023-04-25T04:00:24;14.52;;;6.47;;
47960;SDS011;33721;48.852;9.936;2023-04-25T04:02:50;11.98;;;5.28;;
47960;SDS011;33721;48.852;9.936;2023-04-25T04:05:16;14.85;;;6.07;;
47960;SDS011;33721;48.852;9.936;2023-04-25T04:07:41;12.63;;;5.57;;
47960;SDS011;33721;48.852;9.936;2023-04-25T04:10:10;17.17;;;6.45;;
47960;SDS011;33721;48.852;9.936;2023-04-25T04:12:36;13.45;;;5.65;;
47960;SDS011;33721;48.852;9.936;2023-04-25T04:15:03;15.95;;;5.88;;
47960;SDS011;33721;48.852;9.936;2023-04-25T04:17:30;9.85;;;3.90;;
47960;SDS011;33721;48.852;9.936;2023-04-25T04:19:56;7.20;;;3.50;;
47960;SDS011;33721;48.852;9.936;2023-04-25T04:22:22;8.25;;;3.95;;
47960;SDS011;33721;48.852;9.936;2023-04-25T04:24:48;9.38;;;4.75;;
47960;SDS011;33721;48.852;9.936;2023-04-25T04:27:15;10.38;;;5.40;;
47960;SDS011;33721;48.852;9.936;2023-04-25T04:29:42;13.70;;;6.18;;
47960;SDS011;33721;48.852;9.936;2023-04-25T04:32:08;11.63;;;5.63;;
47960;SDS011;33721;48.852;9.936;2023-04-25T04:34:34;12.18;;;5.40;;
47960;SDS011;33721;48.852;9.936;2023-04-25T04:37:00;12.52;;;5.70;;
47960;SDS011;33721;48.852;9.936;2023-04-25T04:39:25;12.32;;;5.85;;
47960;SDS011;33721;48.852;9.936;2023-04-25T04:41:51;9.93;;;5.30;;
47960;SDS011;33721;48.852;9.936;2023-04-25T04:44:17;10.23;;;5.50;;
47960;SDS011;33721;48.852;9.936;2023-04-25T04:46:43;11.88;;;5.75;;
47960;SDS011;33721;48.852;9.936;2023-04-25T04:49:09;13.75;;;6.13;;
47960;SDS011;33721;48.852;9.936;2023-04-25T04:51:36;13.00;;;5.60;;
47960;SDS011;33721;48.852;9.936;2023-04-25T04:54:02;9.65;;;5.03;;
47960;SDS011;33721;48.852;9.936;2023-04-25T04:56:31;8.77;;;5.25;;
47960;SDS011;33721;48.852;9.936;2023-04-25T04:58:57;10.20;;;4.47;;
47960;SDS011;33721;48.852;9.936;2023-04-25T05:01:23;10.98;;;5.70;;
47960;SDS011;33721;48.852;9.936;2023-04-25T05:03:50;16.92;;;6.43;;
47960;SDS011;33721;48.852;9.936;2023-04-25T05:06:17;12.48;;;5.97;;
47960;SDS011;33721;48.852;9.936;2023-04-25T05:08:44;12.38;;;5.40;;
47960;SDS011;33721;48.852;9.936;2023-04-25T05:11:10;12.05;;;5.43;;
47960;SDS011;33721;48.852;9.936;2023-04-25T05:13:36;11.63;;;5.28;;
47960;SDS011;33721;48.852;9.936;2023-04-25T05:16:01;13.75;;;5.88;;
47960;SDS011;33721;48.852;9.936;2023-04-25T05:18:27;13.15;;;5.57;;
47960;SDS011;33721;48.852;9.936;2023-04-25T05:20:53;11.45;;;5.68;;
47960;SDS011;33721;48.852;9.936;2023-04-25T05:23:19;13.73;;;6.22;;
47960;SDS011;33721;48.852;9.936;2023-04-25T05:25:44;13.75;;;6.38;;
47960;SDS011;33721;48.852;9.936;2023-04-25T05:28:11;15.95;;;5.75;;
47960;SDS011;33721;48.852;9.936;2023-04-25T05:30:38;12.05;;;6.03;;
47960;SDS011;33721;48.852;9.936;2023-04-25T05:33:03;12.57;;;6.10;;
47960;SDS011;33721;48.852;9.936;2023-04-25T05:35:29;10.00;;;5.00;;
47960;SDS011;33721;48.852;9.936;2023-04-25T05:37:55;11.48;;;5.80;;
47960;SDS011;33721;48.852;9.936;2023-04-25T05:40:20;11.70;;;5.68;;
47960;SDS011;33721;48.852;9.936;2023-04-25T05:42:46;13.05;;;5.72;;
47960;SDS011;33721;48.852;9.936;2023-04-25T05:45:12;11.82;;;5.13;;
47960;SDS011;33721;48.852;9.936;2023-04-25T05:47:38;12.50;;;6.00;;
47960;SDS011;33721;48.852;9.936;2023-04-25T05:50:03;12.05;;;6.03;;
47960;SDS011;33721;48.852;9.936;2023-04-25T05:52:29;9.20;;;5.38;;
47960;SDS011;33721;48.852;9.936;2023-04-25T05:54:55;14.27;;;6.35;;
47960;SDS011;33721;48.852;9.936;2023-04-25T05:57:23;12.48;;;5.57;;
47960;SDS011;33721;48.852;9.936;2023-04-25T05:59:50;10.40;;;5.53;;
47960;SDS011;33721;48.852;9.936;2023-04-25T06:02:16;14.23;;;5.88;;
47960;SDS011;33721;48.852;9.936;2023-04-25T06:04:43;12.70;;;5.40;;
47960;SDS011;33721;48.852;9.936;2023-04-25T06:07:08;10.82;;;5.30;;
47960;SDS011;33721;48.852;9.936;2023-04-25T06:09:34;11.20;;;5.95;;
47960;SDS011;33721;48.852;9.936;2023-04-25T06:12:00;10.05;;;5.63;;
47960;SDS011;33721;48.852;9.936;2023-04-25T06:14:26;18.15;;;6.32;;
47960;SDS011;33721;48.852;9.936;2023-04-25T06:16:52;10.93;;;5.05;;
47960;SDS011;33721;48.852;9.936;2023-04-25T06:19:18;13.88;;;5.10;;
47960;SDS011;33721;48.852;9.936;2023-04-25T06:21:43;11.68;;;5.32;;
47960;SDS011;33721;48.852;9.936;2023-04-25T06:24:09;9.82;;;4.88;;
47960;SDS011;33721;48.852;9.936;2023-04-25T06:26:35;11.30;;;5.63;;
47960;SDS011;33721;48.852;9.936;2023-04-25T06:29:01;13.63;;;4.97;;
47960;SDS011;33721;48.852;9.936;2023-04-25T06:31:26;13.60;;;6.50;;
47960;SDS011;33721;48.852;9.936;2023-04-25T06:33:53;10.90;;;5.40;;
47960;SDS011;33721;48.852;9.936;2023-04-25T06:36:20;10.50;;;5.00;;
47960;SDS011;33721;48.852;9.936;2023-04-25T06:38:50;10.68;;;4.95;;
47960;SDS011;33721;48.852;9.936;2023-04-25T06:41:17;14.90;;;5.55;;
47960;SDS011;33721;48.852;9.936;2023-04-25T06:43:43;10.52;;;5.03;;
47960;SDS011;33721;48.852;9.936;2023-04-25T06:46:08;10.70;;;5.38;;
47960;SDS011;33721;48.852;9.936;2023-04-25T06:48:34;10.35;;;5.43;;
47960;SDS011;33721;48.852;9.936;2023-04-25T06:51:00;11.55;;;5.47;;
47960;SDS011;33721;48.852;9.936;2023-04-25T06:53:25;12.05;;;6.40;;
47960;SDS011;33721;48.852;9.936;2023-04-25T06:55:51;13.65;;;6.53;;
47960;SDS011;33721;48.852;9.936;2023-04-25T06:58:17;12.02;;;6.03;;
47960;SDS011;33721;48.852;9.936;2023-04-25T07:00:43;11.60;;;6.43;;
47960;SDS011;33721;48.852;9.936;2023-04-25T07:03:08;12.43;;;6.30;;
47960;SDS011;33721;48.852;9.936;2023-04-25T07:05:34;11.18;;;6.22;;
47960;SDS011;33721;48.852;9.936;2023-04-25T07:08:00;14.40;;;7.03;;
47960;SDS011;33721;48.852;9.936;2023-04-25T07:10:26;15.57;;;7.32;;
47960;SDS011;33721;48.852;9.936;2023-04-25T07:12:51;14.20;;;6.65;;
47960;SDS011;33721;48.852;9.936;2023-04-25T07:15:17;13.18;;;7.13;;
47960;SDS011;33721;48.852;9.936;2023-04-25T07:17:43;12.50;;;6.75;;
47960;SDS011;33721;48.852;9.936;2023-04-25T07:20:08;11.80;;;7.10;;
47960;SDS011;33721;48.852;9.936;2023-04-25T07:22:35;13.18;;;6.57;;
47960;SDS011;33721;48.852;9.936;2023-04-25T07:25:01;11.57;;;6.43;;
47960;SDS011;33721;48.852;9.936;2023-04-25T07:27:26;13.82;;;6.82;;
47960;SDS011;33721;48.852;9.936;2023-04-25T07:29:52;11.55;;;6.60;;
47960;SDS011;33721;48.852;9.936;2023-04-25T07:32:18;10.32;;;6.43;;
47960;SDS011;33721;48.852;9.936;2023-04-25T07:34:44;10.77;;;6.30;;
47960;SDS011;33721;48.852;9.936;2023-04-25T07:37:10;11.10;;;6.05;;
47960;SDS011;33721;48.852;9.936;2023-04-25T07:39:36;11.68;;;6.13;;
47960;SDS011;33721;48.852;9.936;2023-04-25T07:42:02;10.27;;;5.38;;
47960;SDS011;33721;48.852;9.936;2023-04-25T07:44:28;9.82;;;6.03;;
47960;SDS011;33721;48.852;9.936;2023-04-25T07:46:55;8.18;;;4.95;;
47960;SDS011;33721;48.852;9.936;2023-04-25T07:49:21;9.68;;;5.30;;
47960;SDS011;33721;48.852;9.936;2023-04-25T07:51:47;8.73;;;5.28;;
47960;SDS011;33721;48.852;9.936;2023-04-25T07:54:13;9.25;;;5.00;;
47960;SDS011;33721;48.852;9.936;2023-04-25T07:56:40;8.05;;;4.40;;
47960;SDS011;33721;48.852;9.936;2023-04-25T07:59:06;7.00;;;4.28;;
47960;SDS011;33721;48.852;9.936;2023-04-25T08:01:31;8.20;;;4.85;;
47960;SDS011;33721;48.852;9.936;2023-04-25T08:03:59;8.55;;;5.32;;
47960;SDS011;33721;48.852;9.936;2023-04-25T08:06:24;10.40;;;5.35;;
47960;SDS011;33721;48.852;9.936;2023-04-25T08:08:50;9.50;;;5.50;;
47960;SDS011;33721;48.852;9.936;2023-04-25T08:11:16;10.23;;;5.18;;
47960;SDS011;33721;48.852;9.936;2023-04-25T08:13:42;11.02;;;6.20;;
47960;SDS011;33721;48.852;9.936;2023-04-25T08:16:07;14.27;;;5.65;;
47960;SDS011;33721;48.852;9.936;2023-04-25T08:18:33;9.73;;;4.93;;
47960;SDS011;33721;48.852;9.936;2023-04-25T08:20:58;9.73;;;5.13;;
47960;SDS011;33721;48.852;9.936;2023-04-25T08:23:24;8.23;;;4.82;;
47960;SDS011;33721;48.852;9.936;2023-04-25T08:25:50;7.38;;;4.60;;
47960;SDS011;33721;48.852;9.936;2023-04-25T08:28:16;7.45;;;4.40;;
47960;SDS011;33721;48.852;9.936;2023-04-25T08:30:41;6.68;;;4.10;;
47960;SDS011;33721;48.852;9.936;2023-04-25T08:33:07;7.70;;;3.97;;
47960;SDS011;33721;48.852;9.936;2023-04-25T08:35:33;8.55;;;4.03;;
47960;SDS011;33721;48.852;9.936;2023-04-25T08:37:58;7.18;;;3.90;;
47960;SDS011;33721;48.852;9.936;2023-04-25T08:40:27;6.90;;;3.55;;
47960;SDS011;33721;48.852;9.936;2023-04-25T08:42:55;5.28;;;3.30;;
47960;SDS011;33721;48.852;9.936;2023-04-25T08:45:22;7.18;;;3.72;;
47960;SDS011;33721;48.852;9.936;2023-04-25T08:47:48;5.90;;;3.70;;
47960;SDS011;33721;48.852;9.936;2023-04-25T08:50:17;6.60;;;3.88;;
47960;SDS011;33721;48.852;9.936;2023-04-25T08:52:44;8.10;;;4.47;;
47960;SDS011;33721;48.852;9.936;2023-04-25T08:55:14;8.40;;;4.07;;
47960;SDS011;33721;48.852;9.936;2023-04-25T08:57:41;6.22;;;3.45;;
47960;SDS011;33721;48.852;9.936;2023-04-25T09:00:10;6.05;;;3.40;;
47960;SDS011;33721;48.852;9.936;2023-04-25T09:02:38;5.53;;;3.20;;
47960;SDS011;33721;48.852;9.936;2023-04-25T09:05:05;5.38;;;3.33;;
47960;SDS011;33721;48.852;9.936;2023-04-25T09:07:32;7.13;;;3.60;;
47960;SDS011;33721;48.852;9.936;2023-04-25T09:09:58;8.93;;;3.53;;
47960;SDS011;33721;48.852;9.936;2023-04-25T09:12:28;8.65;;;3.30;;
47960;SDS011;33721;48.852;9.936;2023-04-25T09:15:01;5.78;;;3.40;;
47960;SDS011;33721;48.852;9.936;2023-04-25T09:17:29;8.50;;;4.10;;
47960;SDS011;33721;48.852;9.936;2023-04-25T09:19:55;7.75;;;4.25;;
47960;SDS011;33721;48.852;9.936;2023-04-25T09:22:30;7.63;;;4.53;;
47960;SDS011;33721;48.852;9.936;2023-04-25T09:24:55;8.52;;;4.65;;
47960;SDS011;33721;48.852;9.936;2023-04-25T09:27:21;11.40;;;5.40;;
47960;SDS011;33721;48.852;9.936;2023-04-25T09:29:56;10.90;;;5.95;;
47960;SDS011;33721;48.852;9.936;2023-04-25T09:32:24;10.48;;;5.60;;
47960;SDS011;33721;48.852;9.936;2023-04-25T09:37:23;11.02;;;5.60;;
47960;SDS011;33721;48.852;9.936;2023-04-25T09:39:57;10.50;;;5.57;;
47960;SDS011;33721;48.852;9.936;2023-04-25T09:42:30;10.43;;;5.50;;
47960;SDS011;33721;48.852;9.936;2023-04-25T09:44:57;9.18;;;5.38;;
47960;SDS011;33721;48.852;9.936;2023-04-25T09:47:24;15.95;;;8.27;;
47960;SDS011;33721;48.852;9.936;2023-04-25T09:49:51;11.35;;;6.25;;
47960;SDS011;33721;48.852;9.936;2023-04-25T09:52:19;11.43;;;7.00;;
47960;SDS011;33721;48.852;9.936;2023-04-25T09:54:46;13.57;;;6.72;;
47960;SDS011;33721;48.852;9.936;2023-04-25T09:57:17;12.50;;;6.60;;
47960;SDS011;33721;48.852;9.936;2023-04-25T09:59:47;20.77;;;13.68;;
47960;SDS011;33721;48.852;9.936;2023-04-25T10:02:15;15.57;;;7.40;;
47960;SDS011;33721;48.852;9.936;2023-04-25T10:04:42;14.65;;;7.57;;
47960;SDS011;33721;48.852;9.936;2023-04-25T10:07:11;11.10;;;6.28;;
47960;SDS011;33721;48.852;9.936;2023-04-25T10:09:38;12.07;;;6.60;;
47960;SDS011;33721;48.852;9.936;2023-04-25T10:12:05;12.45;;;6.93;;
47960;SDS011;33721;48.852;9.936;2023-04-25T10:14:32;12.50;;;6.43;;
47960;SDS011;33721;48.852;9.936;2023-04-25T10:16:59;12.48;;;6.65;;
47960;SDS011;33721;48.852;9.936;2023-04-25T10:19:27;12.18;;;6.90;;
47960;SDS011;33721;48.852;9.936;2023-04-25T10:22:03;14.82;;;6.95;;
47960;SDS011;33721;48.852;9.936;2023-04-25T10:24:35;12.98;;;7.22;;
47960;SDS011;33721;48.852;9.936;2023-04-25T10:27:02;15.00;;;7.35;;
47960;SDS011;33721;48.852;9.936;2023-04-25T10:29:28;15.55;;;7.07;;
47960;SDS011;33721;48.852;9.936;2023-04-25T10:31:53;14.98;;;6.57;;
47960;SDS011;33721;48.852;9.936;2023-04-25T10:34:19;16.20;;;7.50;;
47960;SDS011;33721;48.852;9.936;2023-04-25T10:36:51;19.20;;;9.90;;
47960;SDS011;33721;48.852;9.936;2023-04-25T10:39:22;13.10;;;6.82;;
47960;SDS011;33721;48.852;9.936;2023-04-25T10:41:58;12.02;;;6.80;;
47960;SDS011;33721;48.852;9.936;2023-04-25T10:44:30;14.07;;;6.45;;
47960;SDS011;33721;48.852;9.936;2023-04-25T10:46:57;12.90;;;6.90;;
47960;SDS011;33721;48.852;9.936;2023-04-25T10:49:31;13.18;;;6.70;;
47960;SDS011;33721;48.852;9.936;2023-04-25T10:52:13;11.77;;;6.28;;
47960;SDS011;33721;48.852;9.936;2023-04-25T10:54:57;15.82;;;8.27;;
47960;SDS011;33721;48.852;9.936;2023-04-25T10:57:29;12.93;;;7.38;;
47960;SDS011;33721;48.852;9.936;2023-04-25T11:00:15;14.00;;;7.40;;
47960;SDS011;33721;48.852;9.936;2023-04-25T11:02:57;14.02;;;7.70;;
47960;SDS011;33721;48.852;9.936;2023-04-25T11:07:50;15.43;;;7.50;;
47960;SDS011;33721;48.852;9.936;2023-04-25T11:10:19;14.80;;;7.40;;
47960;SDS011;33721;48.852;9.936;2023-04-25T11:12:45;14.80;;;8.10;;
47960;SDS011;33721;48.852;9.936;2023-04-25T11:15:12;14.82;;;7.75;;
47960;SDS011;33721;48.852;9.936;2023-04-25T11:17:38;15.63;;;8.10;;
47960;SDS011;33721;48.852;9.936;2023-04-25T11:20:05;14.35;;;7.57;;
47960;SDS011;33721;48.852;9.936;2023-04-25T11:25:05;14.82;;;7.68;;
47960;SDS011;33721;48.852;9.936;2023-04-25T11:27:54;10.65;;;5.55;;
47960;SDS011;33721;48.852;9.936;2023-04-25T11:30:22;11.98;;;6.22;;
47960;SDS011;33721;48.852;9.936;2023-04-25T11:32:49;10.43;;;5.55;;
47960;SDS011;33721;48.852;9.936;2023-04-25T11:35:15;12.10;;;6.20;;
47960;SDS011;33721;48.852;9.936;2023-04-25T11:37:41;9.88;;;5.20;;
47960;SDS011;33721;48.852;9.936;2023-04-25T11:40:08;12.13;;;5.75;;
47960;SDS011;33721;48.852;9.936;2023-04-25T11:42:38;14.23;;;5.47;;
47960;SDS011;33721;48.852;9.936;2023-04-25T11:45:05;6.87;;;3.63;;
47960;SDS011;33721;48.852;9.936;2023-04-25T11:47:31;12.63;;;5.25;;
47960;SDS011;33721;48.852;9.936;2023-04-25T11:49:59;15.82;;;5.85;;
47960;SDS011;33721;48.852;9.936;2023-04-25T11:52:34;12.63;;;5.78;;
47960;SDS011;33721;48.852;9.936;2023-04-25T11:55:08;12.00;;;5.50;;
47960;SDS011;33721;48.852;9.936;2023-04-25T11:57:44;12.60;;;5.82;;
47960;SDS011;33721;48.852;9.936;2023-04-25T12:00:13;12.88;;;6.22;;
47960;SDS011;33721;48.852;9.936;2023-04-25T12:02:47;11.93;;;6.22;;
47960;SDS011;33721;48.852;9.936;2023-04-25T12:05:15;15.43;;;6.72;;
47960;SDS011;33721;48.852;9.936;2023-04-25T12:07:42;15.98;;;6.80;;
47960;SDS011;33721;48.852;9.936;2023-04-25T12:10:11;14.90;;;7.30;;
47960;SDS011;33721;48.852;9.936;2023-04-25T12:12:42;15.45;;;6.32;;
47960;SDS011;33721;48.852;9.936;2023-04-25T12:15:12;17.77;;;6.82;;
47960;SDS011;33721;48.852;9.936;2023-04-25T12:17:48;16.02;;;6.38;;
47960;SDS011;33721;48.852;9.936;2023-04-25T12:20:20;14.32;;;5.90;;
47960;SDS011;33721;48.852;9.936;2023-04-25T12:22:48;13.45;;;6.20;;
47960;SDS011;33721;48.852;9.936;2023-04-25T12:28:23;14.95;;;6.50;;
47960;SDS011;33721;48.852;9.936;2023-04-25T12:33:21;9.80;;;5.50;;
47960;SDS011;33721;48.852;9.936;2023-04-25T12:35:47;12.15;;;5.28;;
47960;SDS011;33721;48.852;9.936;2023-04-25T12:38:29;14.18;;;6.65;;
47960;SDS011;33721;48.852;9.936;2023-04-25T12:40:59;15.10;;;6.78;;
47960;SDS011;33721;48.852;9.936;2023-04-25T12:43:25;16.08;;;6.85;;
47960;SDS011;33721;48.852;9.936;2023-04-25T12:45:51;15.63;;;7.00;;
47960;SDS011;33721;48.852;9.936;2023-04-25T12:48:18;14.00;;;6.50;;
47960;SDS011;33721;48.852;9.936;2023-04-25T12:50:45;13.55;;;6.65;;
47960;SDS011;33721;48.852;9.936;2023-04-25T12:53:13;14.77;;;7.20;;
47960;SDS011;33721;48.852;9.936;2023-04-25T12:55:40;16.40;;;7.15;;
47960;SDS011;33721;48.852;9.936;2023-04-25T12:58:06;13.48;;;7.18;;
47960;SDS011;33721;48.852;9.936;2023-04-25T13:00:32;12.55;;;6.38;;
47960;SDS011;33721;48.852;9.936;2023-04-25T13:02:58;15.75;;;7.03;;
47960;SDS011;33721;48.852;9.936;2023-04-25T13:05:24;16.75;;;8.30;;
47960;SDS011;33721;48.852;9.936;2023-04-25T13:07:50;16.17;;;6.60;;
47960;SDS011;33721;48.852;9.936;2023-04-25T13:10:16;16.05;;;7.22;;
47960;SDS011;33721;48.852;9.936;2023-04-25T13:12:43;15.23;;;7.40;;
47960;SDS011;33721;48.852;9.936;2023-04-25T13:15:09;18.23;;;7.03;;
47960;SDS011;33721;48.852;9.936;2023-04-25T13:17:36;19.30;;;7.05;;
47960;SDS011;33721;48.852;9.936;2023-04-25T13:20:05;17.60;;;7.40;;
47960;SDS011;33721;48.852;9.936;2023-04-25T13:22:33;16.33;;;7.32;;
47960;SDS011;33721;48.852;9.936;2023-04-25T13:25:01;16.98;;;6.95;;
47960;SDS011;33721;48.852;9.936;2023-04-25T13:27:28;18.98;;;7.53;;
47960;SDS011;33721;48.852;9.936;2023-04-25T13:29:54;18.05;;;8.18;;
47960;SDS011;33721;48.852;9.936;2023-04-25T13:32:19;19.17;;;7.85;;
47960;SDS011;33721;48.852;9.936;2023-04-25T13:34:45;16.50;;;8.85;;
47960;SDS011;33721;48.852;9.936;2023-04-25T13:37:11;21.15;;;9.35;;
47960;SDS011;33721;48.852;9.936;2023-04-25T13:39:36;20.58;;;8.80;;
47960;SDS011;33721;48.852;9.936;2023-04-25T13:42:02;20.58;;;8.80;;
47960;SDS011;33721;48.852;9.936;2023-04-25T13:44:28;15.15;;;8.25;;
47960;SDS011;33721;48.852;9.936;2023-04-25T13:46:53;19.35;;;8.65;;
47960;SDS011;33721;48.852;9.936;2023-04-25T13:49:19;18.20;;;7.78;;
47960;SDS011;33721;48.852;9.936;2023-04-25T13:51:45;17.77;;;7.88;;
47960;SDS011;33721;48.852;9.936;2023-04-25T13:54:10;18.42;;;8.52;;
47960;SDS011;33721;48.852;9.936;2023-04-25T13:56:36;21.13;;;9.60;;
47960;SDS011;33721;48.852;9.936;2023-04-25T13:59:02;16.58;;;8.18;;
47960;SDS011;33721;48.852;9.936;2023-04-25T14:01:27;14.50;;;6.93;;
47960;SDS011;33721;48.852;9.936;2023-04-25T14:03:56;12.48;;;6.65;;
47960;SDS011;33721;48.852;9.936;2023-04-25T14:06:22;17.85;;;7.65;;
47960;SDS011;33721;48.852;9.936;2023-04-25T14:08:51;18.38;;;8.82;;
47960;SDS011;33721;48.852;9.936;2023-04-25T14:11:17;22.13;;;8.63;;
47960;SDS011;33721;48.852;9.936;2023-04-25T14:13:43;18.92;;;8.55;;
47960;SDS011;33721;48.852;9.936;2023-04-25T14:16:10;17.83;;;7.80;;
47960;SDS011;33721;48.852;9.936;2023-04-25T14:18:35;22.30;;;9.43;;
47960;SDS011;33721;48.852;9.936;2023-04-25T14:21:01;20.27;;;9.05;;
47960;SDS011;33721;48.852;9.936;2023-04-25T14:23:26;18.42;;;9.05;;
47960;SDS011;33721;48.852;9.936;2023-04-25T14:25:52;19.55;;;9.10;;
47960;SDS011;33721;48.852;9.936;2023-04-25T14:28:18;18.30;;;8.68;;
47960;SDS011;33721;48.852;9.936;2023-04-25T14:30:45;20.63;;;9.32;;
47960;SDS011;33721;48.852;9.936;2023-04-25T14:33:10;19.17;;;8.65;;
47960;SDS011;33721;48.852;9.936;2023-04-25T14:35:36;18.23;;;7.38;;
47960;SDS011;33721;48.852;9.936;2023-04-25T14:38:02;18.08;;;8.43;;
47960;SDS011;33721;48.852;9.936;2023-04-25T14:40:28;18.52;;;9.13;;
47960;SDS011;33721;48.852;9.936;2023-04-25T14:42:54;17.75;;;9.10;;
47960;SDS011;33721;48.852;9.936;2023-04-25T14:45:20;18.38;;;8.50;;
47960;SDS011;33721;48.852;9.936;2023-04-25T14:47:45;18.80;;;9.15;;
47960;SDS011;33721;48.852;9.936;2023-04-25T14:50:11;20.10;;;9.60;;